createdAt,value
2023-03-29T00:00:13.107Z,98208.69
2023-03-29T00:02:40.353Z,98213.53
2023-03-29T00:05:07.825Z,98210.59
2023-03-29T00:07:36.089Z,98220.53
2023-03-29T00:10:03.403Z,98217.03
2023-03-29T00:12:30.243Z,98220.78
2023-03-29T00:14:57.118Z,98210.28
2023-03-29T00:17:24.276Z,98213.75
2023-03-29T00:19:51.115Z,98214.28
2023-03-29T00:22:17.908Z,98206.78
2023-03-29T00:24:46.146Z,98214.25
2023-03-29T00:27:13.068Z,98206.16
2023-03-29T00:29:39.903Z,98200.22
2023-03-29T00:32:06.738Z,98199.63
2023-03-29T00:34:33.633Z,98207.97
2023-03-29T00:37:00.426Z,98208.78
2023-03-29T00:39:27.670Z,98202.91
2023-03-29T00:41:55.875Z,98206.16
2023-03-29T00:44:41.358Z,98201.34
2023-03-29T00:47:08.418Z,98199.50
2023-03-29T00:49:35.240Z,98198.41
2023-03-29T00:52:02.174Z,98196.53
2023-03-29T00:54:28.985Z,98200.53
2023-03-29T00:56:57.211Z,98202.19
2023-03-29T00:59:27.288Z,98198.91
2023-03-29T01:01:57.266Z,98198.91
2023-03-29T01:04:26.945Z,98204.28
2023-03-29T01:06:56.580Z,98200.00
2023-03-29T01:09:24.977Z,98204.81
2023-03-29T01:11:53.889Z,98202.91
2023-03-29T01:14:25.965Z,98204.19
2023-03-29T01:16:52.806Z,98201.47
2023-03-29T01:19:22.216Z,98193.66
2023-03-29T01:21:51.232Z,98199.59
2023-03-29T01:24:26.283Z,98203.34
2023-03-29T01:27:00.415Z,98196.91
2023-03-29T01:29:31.962Z,98185.91
2023-03-29T01:32:01.394Z,98177.88
2023-03-29T01:34:33.117Z,98178.72
2023-03-29T01:37:03.459Z,98176.28
2023-03-29T01:39:30.346Z,98172.31
2023-03-29T01:42:03.728Z,98168.22
2023-03-29T01:44:36.589Z,98155.63
2023-03-29T01:47:09.340Z,98158.03
2023-03-29T01:49:40.077Z,98139.19
2023-03-29T01:52:09.188Z,98133.81
2023-03-29T01:54:39.565Z,98123.31
2023-03-29T01:57:07.367Z,98132.44
2023-03-29T01:59:38.308Z,98128.94
2023-03-29T02:02:08.003Z,98124.94
2023-03-29T02:04:37.385Z,98118.97
2023-03-29T02:07:06.423Z,98095.91
2023-03-29T02:09:34.311Z,98123.75
2023-03-29T02:12:02.344Z,98126.66
2023-03-29T02:14:29.145Z,98127.28
2023-03-29T02:16:57.340Z,98113.38
2023-03-29T02:19:25.121Z,98107.13
2023-03-29T02:21:56.375Z,98106.84
2023-03-29T02:24:24.266Z,98101.56
2023-03-29T02:26:51.250Z,98093.28
2023-03-29T02:29:18.065Z,98089.50
2023-03-29T02:31:49.344Z,98090.03
2023-03-29T02:34:20.683Z,98082.50
2023-03-29T02:36:49.912Z,98079.53
2023-03-29T02:39:17.348Z,98075.75
2023-03-29T02:41:45.599Z,98083.03
2023-03-29T02:44:13.783Z,98079.53
2023-03-29T02:46:40.817Z,98077.63
2023-03-29T02:49:07.767Z,98075.19
2023-03-29T02:51:36.649Z,98075.44
2023-03-29T02:54:06.839Z,98078.41
2023-03-29T02:56:40.696Z,98073.56
2023-03-29T02:59:07.522Z,98072.94
2023-03-29T03:01:34.396Z,98080.19
2023-03-29T03:04:01.248Z,98080.16
2023-03-29T03:06:28.080Z,98080.91
2023-03-29T03:08:56.260Z,98076.09
2023-03-29T03:11:23.175Z,98069.94
2023-03-29T03:13:49.991Z,98069.13
2023-03-29T03:16:16.829Z,98062.09
2023-03-29T03:18:43.777Z,98061.53
2023-03-29T03:21:10.583Z,98058.81
2023-03-29T03:23:37.377Z,98067.44
2023-03-29T03:26:05.644Z,98067.13
2023-03-29T03:28:32.466Z,98062.56
2023-03-29T03:30:59.371Z,98070.34
2023-03-29T03:33:26.299Z,98065.19
2023-03-29T03:35:53.121Z,98061.69
2023-03-29T03:38:19.968Z,98058.78
2023-03-29T03:40:52.673Z,98048.00
2023-03-29T03:43:20.833Z,98044.22
2023-03-29T03:45:47.703Z,98042.59
2023-03-29T03:48:15.022Z,98039.06
2023-03-29T03:50:41.912Z,98043.38
2023-03-29T03:53:08.710Z,98040.91
2023-03-29T03:55:35.545Z,98041.97
2023-03-29T03:58:02.369Z,98033.38
2023-03-29T04:00:30.661Z,98036.84
2023-03-29T04:02:57.576Z,98032.56
2023-03-29T04:05:24.529Z,98029.94
2023-03-29T04:07:51.364Z,98032.66
2023-03-29T04:10:18.218Z,98030.81
2023-03-29T04:12:45.133Z,98035.97
2023-03-29T04:15:12.486Z,98035.28
2023-03-29T04:17:40.889Z,98045.28
2023-03-29T04:20:07.977Z,98036.44
2023-03-29T04:22:34.784Z,98025.72
2023-03-29T04:25:01.629Z,98021.13
2023-03-29T04:27:28.502Z,98021.41
2023-03-29T04:29:55.338Z,98017.63
2023-03-29T04:32:22.202Z,98028.66
2023-03-29T04:34:50.385Z,98028.41
2023-03-29T04:37:17.185Z,98013.41
2023-03-29T04:39:44.049Z,98010.47
2023-03-29T04:42:10.842Z,98001.25
2023-03-29T04:44:37.688Z,98001.28
2023-03-29T04:47:04.607Z,98010.16
2023-03-29T04:49:31.398Z,97995.91
2023-03-29T04:51:59.544Z,98008.03
2023-03-29T04:54:26.413Z,98003.72
2023-03-29T04:56:53.259Z,98008.56
2023-03-29T04:59:20.232Z,97996.97
2023-03-29T05:01:47.064Z,98005.34
2023-03-29T05:04:14.016Z,98002.09
2023-03-29T05:06:41.013Z,98013.69
2023-03-29T05:09:09.202Z,98004.28
2023-03-29T05:11:36.022Z,98006.13
2023-03-29T05:14:02.822Z,98015.31
2023-03-29T05:16:29.786Z,98000.22
2023-03-29T05:18:56.697Z,98013.97
2023-03-29T05:21:23.488Z,97997.25
2023-03-29T05:23:50.352Z,97999.13
2023-03-29T05:26:18.543Z,98010.19
2023-03-29T05:28:45.332Z,98006.13
2023-03-29T05:31:12.798Z,98009.91
2023-03-29T05:33:40.974Z,98011.53
2023-03-29T05:36:08.964Z,98008.56
2023-03-29T05:38:36.032Z,97990.78
2023-03-29T05:41:03.369Z,97994.56
2023-03-29T05:43:31.848Z,97986.47
2023-03-29T05:45:58.770Z,97983.25
2023-03-29T05:48:26.096Z,97982.72
2023-03-29T05:50:53.579Z,97997.50
2023-03-29T05:53:21.438Z,97985.94
2023-03-29T05:55:48.259Z,97993.19
2023-03-29T05:58:15.135Z,97987.81
2023-03-29T06:00:43.637Z,97993.19
2023-03-29T06:03:20.825Z,97995.84
2023-03-29T06:05:49.847Z,97986.44
2023-03-29T06:08:16.823Z,97980.22
2023-03-29T06:10:43.745Z,97987.22
2023-03-29T06:13:10.555Z,97982.91
2023-03-29T06:15:37.368Z,97975.91
2023-03-29T06:18:05.645Z,97977.81
2023-03-29T06:20:32.564Z,97976.97
2023-03-29T06:22:59.352Z,97982.34
2023-03-29T06:25:26.207Z,97977.50
2023-03-29T06:27:53.234Z,97989.66
2023-03-29T06:30:20.136Z,97978.34
2023-03-29T06:32:46.972Z,97965.69
2023-03-29T06:35:15.340Z,97955.16
2023-03-29T06:37:42.177Z,97968.34
2023-03-29T06:40:09.708Z,97969.44
2023-03-29T06:42:36.517Z,97978.56
2023-03-29T06:45:03.544Z,97986.13
2023-03-29T06:47:30.365Z,97986.66
2023-03-29T06:49:57.252Z,97992.03
2023-03-29T06:52:25.427Z,97987.19
2023-03-29T06:54:52.240Z,97987.44
2023-03-29T06:57:19.202Z,97982.31
2023-03-29T06:59:46.121Z,97986.63
2023-03-29T07:02:13.058Z,97993.06
2023-03-29T07:04:40.016Z,97978.78
2023-03-29T07:07:06.937Z,97999.53
2023-03-29T07:09:35.216Z,97983.38
2023-03-29T07:12:02.050Z,97990.09
2023-03-29T07:14:28.939Z,97982.84
2023-03-29T07:16:56.046Z,97971.03
2023-03-29T07:19:23.035Z,97983.09
2023-03-29T07:21:49.955Z,97985.00
2023-03-29T07:24:16.902Z,97994.44
2023-03-29T07:26:59.982Z,97987.97
2023-03-29T07:29:29.883Z,97994.16
2023-03-29T07:31:56.876Z,97993.88
2023-03-29T07:34:23.978Z,98001.13
2023-03-29T07:36:50.797Z,97997.66
2023-03-29T07:39:17.612Z,98000.59
2023-03-29T07:41:45.822Z,98004.09
2023-03-29T07:44:12.760Z,98001.41
2023-03-29T07:46:39.616Z,98005.69
2023-03-29T07:49:06.423Z,98005.94
2023-03-29T07:51:33.225Z,98011.03
2023-03-29T07:54:00.114Z,98010.50
2023-03-29T07:56:26.941Z,98006.47
2023-03-29T07:58:55.147Z,98008.06
2023-03-29T08:01:22.078Z,97997.56
2023-03-29T08:03:48.942Z,98002.97
2023-03-29T08:06:15.773Z,98004.06
2023-03-29T08:08:42.710Z,97992.78
2023-03-29T08:11:09.570Z,97992.50
2023-03-29T08:13:36.383Z,98000.03
2023-03-29T08:16:04.991Z,98004.09
2023-03-29T08:18:34.257Z,97990.09
2023-03-29T08:21:01.991Z,97988.72
2023-03-29T08:23:29.124Z,97999.47
2023-03-29T08:25:55.950Z,98002.72
2023-03-29T08:28:22.839Z,97995.97
2023-03-29T08:30:49.875Z,97993.81
2023-03-29T08:33:18.123Z,97998.66
2023-03-29T08:35:45.028Z,98004.84
2023-03-29T08:38:12.232Z,97998.38
2023-03-29T08:40:39.226Z,98000.22
2023-03-29T08:43:20.926Z,97997.53
2023-03-29T08:45:53.716Z,98003.16
2023-03-29T08:48:26.042Z,98000.47
2023-03-29T08:50:54.210Z,98000.22
2023-03-29T08:53:24.146Z,97996.75
2023-03-29T08:55:52.821Z,97988.97
2023-03-29T08:58:20.792Z,97991.13
2023-03-29T09:00:49.440Z,97992.75
2023-03-29T09:03:19.358Z,97991.13
2023-03-29T09:05:48.455Z,97994.38
2023-03-29T09:08:16.485Z,97979.56
2023-03-29T09:10:46.083Z,97984.94
2023-03-29T09:13:27.758Z,97974.97
2023-03-29T09:15:58.254Z,97989.78
2023-03-29T09:18:30.111Z,97997.84
2023-03-29T09:21:00.418Z,97990.03
2023-03-29T09:23:37.441Z,97983.84
2023-03-29T09:26:08.079Z,97995.38
2023-03-29T09:28:36.439Z,97987.81
2023-03-29T09:31:05.613Z,97984.34
2023-03-29T09:33:35.244Z,97978.41
2023-03-29T09:36:06.085Z,97978.41
2023-03-29T09:38:41.178Z,97976.53
2023-03-29T09:41:14.743Z,97977.03
2023-03-29T09:43:42.780Z,97976.56
2023-03-29T09:46:16.447Z,97974.72
2023-03-29T09:48:44.160Z,97975.53
2023-03-29T09:51:12.869Z,97970.44
2023-03-29T09:53:39.749Z,97963.13
2023-03-29T09:56:07.184Z,97967.75
2023-03-29T09:58:34.305Z,97962.88
2023-03-29T10:01:02.833Z,97963.97
2023-03-29T10:03:30.875Z,97960.19
2023-03-29T10:05:59.278Z,97959.91
2023-03-29T10:08:28.518Z,97958.84
2023-03-29T10:10:57.083Z,97962.34
2023-03-29T10:13:27.747Z,97960.41
2023-03-29T10:15:58.092Z,97950.44
2023-03-29T10:18:25.311Z,97952.84
2023-03-29T10:20:57.500Z,97948.81
2023-03-29T10:23:24.335Z,97945.03
2023-03-29T10:25:53.333Z,97941.53
2023-03-29T10:28:21.513Z,97944.22
2023-03-29T10:30:53.041Z,97938.84
2023-03-29T10:33:22.257Z,97931.63
2023-03-29T10:35:49.894Z,97931.13
2023-03-29T10:38:18.531Z,97926.56
2023-03-29T10:40:46.640Z,97929.50
2023-03-29T10:43:20.575Z,97930.03
2023-03-29T10:45:48.662Z,97931.13
2023-03-29T10:48:16.310Z,97925.75
2023-03-29T10:50:48.105Z,97931.13
2023-03-29T10:53:17.310Z,97922.25
2023-03-29T10:55:51.812Z,97931.13
2023-03-29T10:58:28.212Z,97927.91
2023-03-29T11:00:56.053Z,97928.72
2023-03-29T11:03:33.494Z,97918.50
2023-03-29T11:06:06.899Z,97913.63
2023-03-29T11:08:39.860Z,97918.44
2023-03-29T11:11:11.887Z,97910.63
2023-03-29T11:13:45.212Z,97912.78
2023-03-29T11:16:17.917Z,97913.06
2023-03-29T11:18:50.406Z,97914.38
2023-03-29T11:21:22.214Z,97919.25
2023-03-29T11:23:53.298Z,97917.38
2023-03-29T11:26:22.533Z,97903.91
2023-03-29T11:28:53.008Z,97909.88
2023-03-29T11:31:27.277Z,97903.69
2023-03-29T11:34:01.119Z,97904.50
2023-03-29T11:36:32.622Z,97897.22
2023-03-29T11:39:03.305Z,97899.91
2023-03-29T11:41:31.472Z,97894.53
2023-03-29T11:44:02.356Z,97894.47
2023-03-29T11:46:32.289Z,97900.19
2023-03-29T11:49:02.156Z,97893.97
2023-03-29T11:51:32.642Z,97901.50
2023-03-29T11:54:03.190Z,97894.78
2023-03-29T11:56:33.924Z,97887.22
2023-03-29T11:59:05.214Z,97883.72
2023-03-29T12:01:33.945Z,97887.72
2023-03-29T12:04:04.197Z,97888.56
2023-03-29T12:06:34.208Z,97878.59
2023-03-29T12:09:03.250Z,97874.03
2023-03-29T12:11:33.314Z,97884.28
2023-03-29T12:14:03.940Z,97885.34
2023-03-29T12:16:34.984Z,97885.66
2023-03-29T12:19:04.384Z,97882.19
2023-03-29T12:21:32.094Z,97878.66
2023-03-29T12:23:58.956Z,97875.13
2023-03-29T12:26:45.433Z,97882.19
2023-03-29T12:29:18.137Z,97873.28
2023-03-29T12:31:52.528Z,97868.94
2023-03-29T12:34:27.077Z,97865.44
2023-03-29T12:37:02.097Z,97860.88
2023-03-29T12:39:30.065Z,97861.13
2023-03-29T12:42:05.112Z,97861.41
2023-03-29T12:44:32.619Z,97860.31
2023-03-29T12:47:01.102Z,97859.50
2023-03-29T12:49:29.506Z,97857.91
2023-03-29T12:51:57.505Z,97856.28
2023-03-29T12:54:28.160Z,97858.16
2023-03-29T12:56:56.562Z,97849.56
2023-03-29T12:59:26.904Z,97854.38
2023-03-29T13:01:58.938Z,97852.53
2023-03-29T13:04:35.950Z,97852.25
2023-03-29T13:07:03.018Z,97857.91
2023-03-29T13:09:31.172Z,97848.22
2023-03-29T13:12:03.742Z,97848.75
2023-03-29T13:14:32.889Z,97853.59
2023-03-29T13:17:12.009Z,97850.38
2023-03-29T13:19:49.253Z,97839.59
2023-03-29T13:22:22.372Z,97831.00
2023-03-29T13:25:04.084Z,97840.16
2023-03-29T13:27:34.382Z,97835.31
2023-03-29T13:30:10.622Z,97835.31
2023-03-29T13:32:48.839Z,97825.34
2023-03-29T13:35:20.658Z,97829.41
2023-03-29T13:37:51.761Z,97826.94
2023-03-29T13:40:27.137Z,97833.16
2023-03-29T13:42:58.756Z,97824.81
2023-03-29T13:45:26.911Z,97821.03
2023-03-29T13:50:34.494Z,97813.22
2023-03-29T13:53:03.643Z,97807.06
2023-03-29T13:55:33.622Z,97794.44
2023-03-29T13:58:04.405Z,97804.13
2023-03-29T14:00:33.693Z,97792.28
2023-03-29T14:03:02.312Z,97797.94
2023-03-29T14:05:31.857Z,97800.88
2023-03-29T14:08:05.198Z,97796.31
2023-03-29T14:10:34.775Z,97794.69
2023-03-29T14:13:03.198Z,97794.22
2023-03-29T14:15:39.556Z,97795.53
2023-03-29T14:18:09.992Z,97782.88
2023-03-29T14:20:36.820Z,97781.84
2023-03-29T14:23:10.631Z,97784.50
2023-03-29T14:25:38.674Z,97786.38
2023-03-29T14:28:12.527Z,97784.22
2023-03-29T14:30:44.757Z,97783.94
2023-03-29T14:33:12.166Z,97784.75
2023-03-29T14:35:39.402Z,97788.75
2023-03-29T14:38:06.475Z,97790.94
2023-03-29T14:40:34.757Z,97790.38
2023-03-29T14:43:05.309Z,97788.78
2023-03-29T14:45:32.332Z,97789.84
2023-03-29T14:47:59.462Z,97775.59
2023-03-29T14:50:28.171Z,97781.25
2023-03-29T14:52:56.314Z,97783.69
2023-03-29T14:55:23.285Z,97789.84
2023-03-29T14:57:53.589Z,97786.06
2023-03-29T15:00:23.052Z,97784.19
2023-03-29T15:02:50.638Z,97775.88
2023-03-29T15:05:25.653Z,97773.97
2023-03-29T15:07:52.605Z,97773.69
2023-03-29T15:10:19.640Z,97771.03
2023-03-29T15:12:46.539Z,97772.09
2023-03-29T15:15:15.177Z,97769.41
2023-03-29T15:17:51.710Z,97778.00
2023-03-29T15:20:20.891Z,97782.31
2023-03-29T15:22:55.778Z,97783.94
2023-03-29T15:25:22.960Z,97776.41
2023-03-29T15:27:50.843Z,97759.72
2023-03-29T15:30:19.263Z,97753.53
2023-03-29T15:32:46.248Z,97762.66
2023-03-29T15:35:23.057Z,97748.97
2023-03-29T15:37:50.631Z,97742.25
2023-03-29T15:40:18.658Z,97733.91
2023-03-29T15:42:45.644Z,97737.13
2023-03-29T15:45:15.139Z,97733.66
2023-03-29T15:47:43.625Z,97734.72
2023-03-29T15:50:10.682Z,97731.75
2023-03-29T15:52:37.790Z,97729.59
2023-03-29T15:55:04.992Z,97726.91
2023-03-29T15:57:31.845Z,97729.06
2023-03-29T15:59:58.780Z,97727.72
2023-03-29T16:02:25.993Z,97730.16
2023-03-29T16:04:54.210Z,97726.38
2023-03-29T16:07:21.101Z,97726.09
2023-03-29T16:09:47.944Z,97728.28
2023-03-29T16:12:14.760Z,97726.38
2023-03-29T16:14:43.139Z,97718.59
2023-03-29T16:17:10.180Z,97720.22
2023-03-29T16:19:36.996Z,97705.69
2023-03-29T16:22:05.221Z,97710.25
2023-03-29T16:24:32.180Z,97708.09
2023-03-29T16:26:59.140Z,97714.03
2023-03-29T16:29:25.994Z,97714.03
2023-03-29T16:31:53.604Z,97709.44
2023-03-29T16:34:20.874Z,97712.66
2023-03-29T16:36:47.934Z,97703.00
2023-03-29T16:39:16.459Z,97711.31
2023-03-29T16:41:43.394Z,97712.94
2023-03-29T16:44:13.432Z,97712.66
2023-03-29T16:46:40.510Z,97713.75
2023-03-29T16:49:11.162Z,97709.66
2023-03-29T16:51:40.413Z,97705.00
2023-03-29T16:54:07.460Z,97707.13
2023-03-29T16:56:36.153Z,97701.19
2023-03-29T16:59:03.306Z,97692.06
2023-03-29T17:01:30.465Z,97696.09
2023-03-29T17:03:57.640Z,97691.22
2023-03-29T17:06:24.947Z,97701.47
2023-03-29T17:08:51.930Z,97690.44
2023-03-29T17:11:19.006Z,97693.38
2023-03-29T17:13:47.402Z,97682.88
2023-03-29T17:16:14.639Z,97697.97
2023-03-29T17:18:41.792Z,97693.97
2023-03-29T17:21:08.985Z,97693.97
2023-03-29T17:23:36.073Z,97698.81
2023-03-29T17:26:03.565Z,97696.94
2023-03-29T17:28:30.742Z,97703.13
2023-03-29T17:30:59.159Z,97699.38
2023-03-29T17:33:26.254Z,97709.59
2023-03-29T17:35:53.497Z,97701.81
2023-03-29T17:38:20.567Z,97700.72
2023-03-29T17:40:51.709Z,97708.00
2023-03-29T17:43:18.766Z,97711.53
2023-03-29T17:45:45.785Z,97708.59
2023-03-29T17:48:14.184Z,97707.19
2023-03-29T17:50:41.254Z,97708.50
2023-03-29T17:53:08.282Z,97707.72
2023-03-29T17:55:35.269Z,97718.00
2023-03-29T17:58:02.372Z,97726.38
2023-03-29T18:00:29.417Z,97719.38
2023-03-29T18:02:56.555Z,97717.22
2023-03-29T18:05:25.171Z,97715.84
2023-03-29T18:07:52.282Z,97716.16
2023-03-29T18:10:19.367Z,97717.44
2023-03-29T18:12:46.405Z,97724.94
2023-03-29T18:15:13.527Z,97717.69
2023-03-29T18:17:40.703Z,97730.94
2023-03-29T18:20:08.361Z,97733.31
2023-03-29T18:22:36.746Z,97727.63
2023-03-29T18:25:04.095Z,97724.16
2023-03-29T18:27:32.235Z,97724.44
2023-03-29T18:29:59.105Z,97723.34
2023-03-29T18:32:26.041Z,97727.63
2023-03-29T18:34:52.981Z,97727.16
2023-03-29T18:37:19.856Z,97729.03
2023-03-29T18:39:48.100Z,97734.72
2023-03-29T18:42:15.014Z,97720.19
2023-03-29T18:44:41.839Z,97729.34
2023-03-29T18:47:08.634Z,97732.31
2023-03-29T18:49:35.556Z,97732.28
2023-03-29T18:52:02.409Z,97732.81
2023-03-29T18:54:29.377Z,97724.47
2023-03-29T18:56:59.247Z,97727.97
2023-03-29T18:59:26.472Z,97729.34
2023-03-29T19:01:53.365Z,97739.03
2023-03-29T19:04:20.221Z,97729.34
2023-03-29T19:06:47.055Z,97728.00
2023-03-29T19:09:14.070Z,97739.31
2023-03-29T19:11:40.974Z,97732.03
2023-03-29T19:14:09.469Z,97740.09
2023-03-29T19:16:36.377Z,97729.34
2023-03-29T19:19:03.504Z,97732.56
2023-03-29T19:21:30.313Z,97739.28
2023-03-29T19:23:57.107Z,97725.88
2023-03-29T19:26:24.057Z,97727.22
2023-03-29T19:28:50.866Z,97718.06
2023-03-29T19:31:19.141Z,97727.72
2023-03-29T19:33:46.052Z,97729.09
2023-03-29T19:36:12.927Z,97724.78
2023-03-29T19:38:39.927Z,97719.13
2023-03-29T19:41:06.964Z,97719.66
2023-03-29T19:43:33.884Z,97721.03
2023-03-29T19:46:05.433Z,97721.56
2023-03-29T19:48:33.777Z,97730.69
2023-03-29T19:51:01.490Z,97736.34
2023-03-29T19:53:28.501Z,97723.19
2023-03-29T19:55:55.334Z,97697.03
2023-03-29T19:58:22.176Z,97707.84
2023-03-29T20:00:49.145Z,97714.00
2023-03-29T20:03:16.257Z,97705.13
2023-03-29T20:05:45.908Z,97695.16
2023-03-29T20:08:12.806Z,97701.66
2023-03-29T20:10:39.656Z,97700.31
2023-03-29T20:13:06.593Z,97694.94
2023-03-29T20:15:34.616Z,97693.84
2023-03-29T20:18:01.748Z,97691.41
2023-03-29T20:20:28.609Z,97680.38
2023-03-29T20:22:56.810Z,97679.31
2023-03-29T20:25:23.905Z,97681.97
2023-03-29T20:27:50.724Z,97694.38
2023-03-29T20:30:17.713Z,97692.75
2023-03-29T20:32:44.597Z,97683.63
2023-03-29T20:35:11.500Z,97689.56
2023-03-29T20:37:38.376Z,97685.50
2023-03-29T20:40:07.807Z,97675.31
2023-03-29T20:42:34.700Z,97689.00
2023-03-29T20:45:01.535Z,97680.94
2023-03-29T20:47:28.565Z,97679.06
2023-03-29T20:49:55.361Z,97681.75
2023-03-29T20:52:22.917Z,97678.81
2023-03-29T20:54:50.642Z,97674.75
2023-03-29T20:57:19.754Z,97676.09
2023-03-29T20:59:46.988Z,97672.84
2023-03-29T21:02:14.258Z,97670.44
2023-03-29T21:04:41.493Z,97657.81
2023-03-29T21:07:08.344Z,97667.75
2023-03-29T21:09:35.719Z,97663.22
2023-03-29T21:12:02.699Z,97672.88
2023-03-29T21:14:31.154Z,97668.59
2023-03-29T21:16:57.969Z,97646.50
2023-03-29T21:19:25.076Z,97679.06
2023-03-29T21:21:52.276Z,97687.38
2023-03-29T21:24:19.204Z,97683.06
2023-03-29T21:26:46.014Z,97695.72
2023-03-29T21:29:13.013Z,97687.38
2023-03-29T21:31:41.419Z,97674.50
2023-03-29T21:34:08.237Z,97672.91
2023-03-29T21:36:35.061Z,97666.44
2023-03-29T21:39:01.923Z,97659.94
2023-03-29T21:41:28.782Z,97660.22
2023-03-29T21:43:55.596Z,97655.94
2023-03-29T21:46:22.434Z,97663.69
2023-03-29T21:48:50.590Z,97653.22
2023-03-29T21:51:17.710Z,97645.16
2023-03-29T21:53:44.903Z,97643.56
2023-03-29T21:56:11.747Z,97622.59
2023-03-29T21:58:38.537Z,97621.50
2023-03-29T22:01:07.721Z,97616.94
2023-03-29T22:03:34.541Z,97617.19
2023-03-29T22:06:03.931Z,97620.13
2023-03-29T22:08:30.850Z,97612.06
2023-03-29T22:10:57.792Z,97607.50
2023-03-29T22:13:25.466Z,97611.53
2023-03-29T22:15:56.358Z,97619.06
2023-03-29T22:18:23.215Z,97613.94
2023-03-29T22:20:50.053Z,97612.88
2023-03-29T22:23:18.239Z,97601.88
2023-03-29T22:25:45.026Z,97595.69
2023-03-29T22:28:11.822Z,97596.47
2023-03-29T22:30:38.947Z,97598.38
2023-03-29T22:33:05.821Z,97597.84
2023-03-29T22:35:33.823Z,97598.34
2023-03-29T22:38:00.774Z,97599.97
2023-03-29T22:40:28.950Z,97604.28
2023-03-29T22:42:55.895Z,97593.53
2023-03-29T22:45:22.743Z,97602.13
2023-03-29T22:47:49.694Z,97607.50
2023-03-29T22:50:16.694Z,97617.44
2023-03-29T22:52:43.731Z,97611.53
2023-03-29T22:55:10.544Z,97610.47
2023-03-29T22:57:38.852Z,97600.50
2023-03-29T23:00:07.166Z,97598.66
2023-03-29T23:02:34.115Z,97584.94
2023-03-29T23:05:00.916Z,97587.88
2023-03-29T23:07:27.752Z,97582.50
2023-03-29T23:09:54.558Z,97577.94
2023-03-29T23:12:21.351Z,97573.63
2023-03-29T23:14:49.570Z,97563.94
2023-03-29T23:17:16.373Z,97562.31
2023-03-29T23:19:43.172Z,97559.09
2023-03-29T23:22:10.054Z,97545.34
2023-03-29T23:24:36.850Z,97548.59
2023-03-29T23:27:03.711Z,97544.59
2023-03-29T23:29:30.537Z,97551.31
2023-03-29T23:31:58.726Z,97563.16
2023-03-29T23:34:25.547Z,97548.06
2023-03-29T23:36:52.398Z,97556.94
2023-03-29T23:39:19.220Z,97549.72
2023-03-29T23:41:46.016Z,97549.13
2023-03-29T23:44:12.875Z,97548.03
2023-03-29T23:46:39.766Z,97554.00
2023-03-29T23:49:08.112Z,97549.66
2023-03-29T23:51:34.958Z,97550.50
2023-03-29T23:54:01.762Z,97548.63
2023-03-29T23:56:28.565Z,97539.97
2023-03-29T23:58:55.470Z,97541.34
